Flight Track Log - Related Links

Times and Time Zones

All times are in EDT time to prevent confusion due to time zone crossing. See the FLG4152 flight status page for this flight to view local times or setup timezone preferences in your user account.

Time Position Orientation Groundspeed Altitude Reporting Facility
EDT Latitude Longitude Course Direction KTS MPH feet Rate Location/Type
09:27PM 39.0167 -84.6833 109° East 193 222 3,700  Level Cincinnati TRACON
09:28PM 39.0000 -84.6000 104° East 253 291 5,800 2,331 Climbing Cincinnati TRACON
09:29PM 38.9636 -84.4583 108° East 283 326 9,800 2,211 Climbing Indianapolis Center
09:30PM 38.8688 -84.0473 101° East  Level FlightAware Approximate
09:30PM 38.9419 -84.3564 105° East 293 337 11,400  Level Indianapolis Center
09:31PM 38.8477 -83.9083 109° East  Level FlightAware Approximate
09:31PM 38.9181 -84.2394 105° East 329 379 12,600  Level Indianapolis Center
09:32PM 38.8113 -83.7745 109° East  Level FlightAware Approximate
09:32PM 38.8914 -84.1136 105° East 357 411 14,000  Level Indianapolis Center
09:33PM 38.8644 -83.9847 105° East 369 425 15,500 1,512 Climbing Indianapolis Center
09:34PM 38.8353 -83.8542 106° East 378 435 17,100 1,268 Climbing Indianapolis Center
09:36PM 38.8072 -83.7211 105° East 382 440 18,100 976 Climbing Indianapolis Center
09:37PM 38.7769 -83.5825 106° East 396 456 19,100 1,073 Climbing Indianapolis Center
09:38PM 38.7650 -83.4150 95° East 406 467 20,300 1,073 Climbing Indianapolis Center
09:39PM 38.7644 -83.2700 90° East 406 467 21,300 1,024 Climbing Indianapolis Center
09:40PM 38.7633 -83.1186 90° East 407 468 22,400 1,024 Climbing Indianapolis Center
09:41PM 38.7639 -82.9714 90° East 411 473 23,400 976 Climbing Indianapolis Center
09:42PM 38.7411 -82.8306 102° East 416 479 24,400 878 Climbing Indianapolis Center
09:43PM 38.6919 -82.6956 115° Southeast 419 482 25,200 780 Climbing Indianapolis Center
09:44PM 38.6378 -82.5486 115° Southeast 425 489 26,000 689 Climbing Indianapolis Center
09:45PM 38.5906 -82.4197 115° Southeast 431 496 26,600 634 Climbing Indianapolis Center
09:46PM 38.5386 -82.2789 115° Southeast 439 505 27,300 683 Climbing Indianapolis Center
09:47PM 38.4875 -82.1386 115° Southeast 439 505 28,000 780 Climbing Indianapolis Center
09:48PM 38.4244 -81.9703 116° Southeast 441 507 28,900 488 Climbing Indianapolis Center
09:49PM 38.3706 -81.8272 116° Southeast 448 516 29,000 49 Climbing Indianapolis Center
09:50PM 38.3347 -81.6728 106° East 468 539 29,000  Level Indianapolis Center
09:51PM 38.3089 -81.5111 101° East 472 543 29,000  Level Indianapolis Center
09:52PM 38.2819 -81.3464 102° East 480 552 29,000  Level Indianapolis Center
09:53PM 38.2542 -81.1781 102° East 488 562 29,000  Level Indianapolis Center
09:54PM 38.2272 -81.0083 101° East 493 567 29,000  Level Indianapolis Center
09:55PM 38.1944 -80.8056 102° East 491 565 29,000  Level Indianapolis Center
09:56PM 38.1669 -80.6353 102° East 488 562 29,000  Level Indianapolis Center
09:57PM 38.1378 -80.4647 102° East 494 568 29,000  Level Indianapolis Center
09:58PM 38.1086 -80.2944 102° East 495 570 29,000 -1,366 Level Indianapolis Center
09:59PM 38.0839 -80.1144 100° East 485 558 26,200 -2,534 Descending Indianapolis Center
10:00PM 38.1214 -79.9997 67° East 463 533 24,100 -1,552 Descending Washington Center
10:01PM 38.1750 -79.8497 66° East 427 491 23,200 -1,091 Descending Washington Center
10:02PM 38.2025 -79.7192 75° East 407 468 21,900 -1,091 Descending Washington Center
10:03PM 38.1483 -79.5947 119° Southeast 360 414 21,000 -446 Descending Washington Center
10:04PM 38.0894 -79.4781 123° Southeast 376 433 21,000  Level Washington Center
10:05PM 38.0306 -79.3617 123° Southeast 381 438 21,000  Level Washington Center
10:06PM 37.9778 -79.2536 122° Southeast 396 456 21,000 -446 Level Washington Center
10:07PM 37.9186 -79.1375 123° Southeast 396 456 20,100 -1,373 Descending Washington Center
10:08PM 37.8764 -79.0144 113° Southeast 390 449 18,300 -1,627 Descending Washington Center
10:09PM 37.8419 -78.8972 110° East 368 423 16,900 -1,328 Descending Washington Center
10:10PM 37.8078 -78.7800 110° East 359 413 15,600 -1,438 Descending Washington Center
10:11PM 37.7753 -78.6606 109° East 347 399 14,000 -1,475 Descending Washington Center
10:12PM 37.7425 -78.5514 111° Southeast 337 388 12,700 -1,322 Descending Washington Center
10:13PM 37.7119 -78.4428 110° East 331 381 11,400 -1,250 Descending Washington Center
10:14PM 37.6828 -78.3419 110° East 326 375 10,200 -1,190 Descending Washington Center
10:15PM 37.6558 -78.2542 111° Southeast 304 350 9,000 -590 Descending Washington Center
10:16PM 37.6244 -78.1536 111° Southeast 304 350 9,000  Level Washington Center
10:17PM 37.5953 -78.0581 111° Southeast 299 344 9,000  Level Washington Center
10:18PM 37.5700 -77.9606 108° East 294 338 9,000 -756 Level Washington Center
10:19PM 37.5783 -77.8611 84° East 281 323 7,500 -1,424 Descending Washington Center
10:20PM 37.5883 -77.7644 83° East 274 315 6,200 -1,190 Descending Washington Center
10:21PM 37.5942 -77.6728 85° East 269 310 5,100 -1,109 Descending Washington Center
10:22PM 37.6019 -77.5814 84° East 269 310 4,000 -1,068 Descending Washington Center
10:23PM 37.6097 -77.4950 83° East 263 303 3,000 -1,000 Descending Washington Center

Login

Don't have an account? Register now (free) for customized features, flight alerts, and more!